Nearby METAR Reports

KLNK - Lincoln, Nebraska, USA
Distance from station: WNW 8mi, 13km
Updated: Wed, 24-Apr-2024 8:54pm CDT
Mostly Cloudy
Mostly Cloudy
 Wind from SE
Wind: SE 7 mph, 11 km/h
Temperature: 64°F, 18°C
Dew Point: 36°F, 2°C
Humidity: 34%
Barometer: 30.08 inHg, 1018.6 hPa
Clouds: Mostly Cloudy
Visibility: 10 miles, 16 km
Cloud details: Few Clouds 7500 ft
Mostly Cloudy 11000 ft
2024/04/25 01:54 KLNK 250154Z 14006KT 10SM FEW075 BKN110 18/02 A3008 RMK AO2 RAB20E29 SLP183 P0000 T01830022
KAHQ - Wahoo, Nebraska, USA
Distance from station: N 31mi, 49km
Updated: Sat, 13-Apr-2024 6:10pm CDT
NOT Current
Clear
Clear
 Wind from SSW
Wind: SSW 6 mph, 9 km/h
Temperature: 84°F, 29°C
Dew Point: 45°F, 7°C
Humidity: 25%
Barometer: 29.71 inHg, 1006.1 hPa
Clouds: Clear
Visibility: 10 miles, 16 km
2024/04/13 23:10 KAHQ 132310Z AUTO 21005KT 10SM CLR 29/07 A2971 RMK AO2 T02890069
 
KBIE - Beatrice Municip, Nebraska, USA
Distance from station: S 36mi, 57km
Updated: Wed, 24-Apr-2024 8:55pm CDT
Mostly Cloudy
Mostly Cloudy
 Wind from SSE
Wind: SSE 7 mph, 11 km/h
Temperature: 63°F, 17°C
Dew Point: 37°F, 3°C
Humidity: 39%
Barometer: 30.07 inHg, 1018.3 hPa
Clouds: Mostly Cloudy
Visibility: 10 miles, 16 km
Cloud details: Mostly Cloudy 11000 ft
2024/04/25 01:55 KBIE 250155Z AUTO 16006KT 10SM BKN110 17/03 A3007 RMK AO2 T01670029
KMLE - Omaha/Millard, Nebraska, USA
Distance from station: NE 39mi, 63km
Updated: Wed, 24-Apr-2024 8:55pm CDT
Overcast
Overcast
 Wind from calm
Wind: Calm
Temperature: 64°F, 18°C
Dew Point: 32°F, 0°C
Humidity: 30%
Barometer: 30.09 inHg, 1019 hPa
Clouds: Overcast
Visibility: 10 miles, 16 km
Cloud details: Overcast 12000 ft
2024/04/25 01:55 KMLE 250155Z AUTO 00000KT 10SM OVC120 18/00 A3009 RMK AO2 T01791001
 
KPMV - Plattsmouth Muni, Nebraska, USA
Distance from station: ENE 39mi, 63km
Updated: Wed, 24-Apr-2024 8:55pm CDT
Mostly Cloudy
Mostly Cloudy
 Wind from ESE
Wind: ESE 3 mph, 6 km/h
Temperature: 64°F, 18°C
Dew Point: 30°F, -1°C
Humidity: 28%
Barometer: 30.10 inHg, 1019.3 hPa
Clouds: Mostly Cloudy
Visibility: 10 miles, 16 km
Cloud details: Mostly Cloudy 11000 ft
2024/04/25 01:55 KPMV 250155Z AUTO 12003KT 10SM BKN110 18/M01 A3010 RMK AO2 T01811010
KAFK - Nebraska City, Nebraska, USA
Distance from station: ESE 43mi, 69km
Updated: Wed, 24-Apr-2024 8:55pm CDT
Partly Cloudy
Partly Cloudy
 Wind from SE
Wind: SE 6 mph, 9 km/h
Temperature: 63°F, 17°C
Dew Point: 36°F, 2°C
Humidity: 37%
Barometer: 30.10 inHg, 1019.3 hPa
Clouds: Partly Cloudy
Visibility: 10 miles, 16 km
Cloud details: Partly Cloudy 12000 ft
2024/04/25 01:55 KAFK 250155Z AUTO 14005KT 10SM SCT120 17/02 A3010 RMK AO2 T01670015
 
KOFF - Offutt Afb/Belle, Nebraska, USA
Distance from station: ENE 44mi, 70km
Updated: Wed, 24-Apr-2024 8:55pm CDT
Mostly Cloudy
Mostly Cloudy
 Wind from SE
Wind: SE 5 mph, 7 km/h
Temperature: 66°F, 19°C
Dew Point: 30°F, -1°C
Humidity: 26%
Barometer: 30.09 inHg, 1019 hPa
Clouds: Mostly Cloudy
Visibility: 10 miles, 16 km
Cloud details: Mostly Cloudy 13000 ft
2024/04/25 01:55 KOFF 250155Z 13004KT 10SM BKN130 19/M01 A3009 RMK AO2A SLP186 SLP/ALSTG ESTMD WND DATA ESTMD T01851015
KFET - Fremont Muni Arp, Nebraska, USA
Distance from station: N 46mi, 74km
Updated: Wed, 24-Apr-2024 8:55pm CDT
Overcast
Overcast
 Wind from E
Wind: E 5 mph, 7 km/h
Temperature: 61°F, 16°C
Dew Point: 28°F, -2°C
Humidity: 29%
Barometer: 30.08 inHg, 1018.6 hPa
Clouds: Overcast
Visibility: 10 miles, 16 km
Cloud details: Overcast 11000 ft
2024/04/25 01:55 KFET 250155Z AUTO 10004KT 10SM OVC110 16/M02 A3008 RMK AO2 T01621022
 
KBTA - Blair Muni, Nebraska, USA
Distance from station: NNE 51mi, 82km
Updated: Wed, 24-Apr-2024 8:55pm CDT
Mostly Cloudy
Mostly Cloudy
 Wind from E
Wind: E 5 mph, 7 km/h
Temperature: 63°F, 17°C
Dew Point: 30°F, -1°C
Humidity: 30%
Barometer: 30.09 inHg, 1019 hPa
Clouds: Mostly Cloudy
Visibility: 10 miles, 16 km
Cloud details: Mostly Cloudy 12000 ft
2024/04/25 01:55 KBTA 250155Z AUTO 09004KT 10SM BKN120 17/M01 A3009 RMK AO2 T01651011
KJYR - York, Nebraska, USA
Distance from station: W 52mi, 84km
Updated: Mon, 22-Apr-2024 6:30pm CDT
NOT Current
Clear
Clear
 Wind from NW
Wind: NW 15 mph, 24 km/h
Temperature: 70°F, 21°C
Dew Point: 36°F, 2°C
Humidity: 29%
Barometer: 29.76 inHg, 1007.8 hPa
Clouds: Clear
Visibility: 10 miles, 16 km
2024/04/22 23:30 KJYR 222330Z AUTO 32013KT 10SM CLR 21/02 A2976 RMK AO2
 
KOMA - Omaha/Eppley, Nebraska, USA
Distance from station: NE 53mi, 85km
Updated: Wed, 24-Apr-2024 8:52pm CDT
Mostly Cloudy
Mostly Cloudy
 Wind from ESE
Wind: ESE 7 mph, 11 km/h
Temperature: 64°F, 18°C
Dew Point: 30°F, -1°C
Humidity: 28%
Barometer: 30.08 inHg, 1018.6 hPa
Clouds: Mostly Cloudy
Visibility: 10 miles, 16 km
Cloud details: Mostly Cloudy 12000 ft
2024/04/25 01:52 KOMA 250152Z 12006KT 10SM BKN120 18/M01 A3008 RMK AO2 SLP187 T01781006
KOLU - Columbus Muni, Nebraska, USA
Distance from station: NW 58mi, 93km
Updated: Wed, 24-Apr-2024 8:56pm CDT
Light rain, Overcast
Light rain, Overcast
 Wind from ESE
Wind: ESE 7 mph, 11 km/h
Temperature: 61°F, 16°C
Dew Point: 36°F, 2°C
Humidity: 39%
Barometer: 30.07 inHg, 1018.3 hPa
Summary: Light Rain
Clouds: Overcast
Visibility: 8 miles, 13 km
Cloud details: Overcast 10000 ft
2024/04/25 01:56 KOLU 250156Z AUTO 11006KT 8SM -RA OVC100 16/02 A3007 RMK AO2 RAB49 SLP186 P0000 T01610022